Time;durP1;ratioP1;P1;durP2;ratioP2;P2;SDS_P1;SDS_P2;PMS_P1;PMS_P2;Temp;Humidity;BMP_temperature;BMP_pressure;BME280_temperature;BME280_humidity;BME280_pressure;Samples;Min_cycle;Max_cycle;Signal;HPM_P1;HPM_P2
2022/06/02 00:00:48;;;;;;;20.83;18.90;;;;;;;13.82;100.00;98987.38;2065109;28;20209;-74
2022/06/02 00:01:55;;;;;;;23.33;18.88;;;;;;;13.88;100.00;99000.59;2065232;28;20190;-74
2022/06/02 00:03:09;;;;;;;21.35;19.45;;;;;;;13.85;100.00;98985.94;2065904;28;20173;-74
2022/06/02 00:04:19;;;;;;;21.20;19.38;;;;;;;13.84;100.00;98979.00;2065734;28;20203;-74
2022/06/02 00:05:25;;;;;;;20.90;18.83;;;;;;;13.85;100.00;98985.94;2065840;28;20170;-75
2022/06/02 00:06:42;;;;;;;25.95;19.23;;;;;;;13.82;100.00;98986.59;2065494;28;20707;-74
2022/06/02 00:07:55;;;;;;;20.42;18.73;;;;;;;13.81;100.00;98987.66;2066123;28;20563;-74
2022/06/02 00:09:03;;;;;;;20.52;18.67;;;;;;;13.80;100.00;98989.56;2065777;28;20230;-74
2022/06/02 00:10:08;;;;;;;20.55;18.45;;;;;;;13.82;100.00;98991.94;2065929;28;20178;-74
2022/06/02 00:11:30;;;;;;;20.25;18.60;;;;;;;13.82;100.00;99003.47;2065074;28;20208;-75
2022/06/02 00:12:35;;;;;;;21.58;19.58;;;;;;;13.82;100.00;99002.69;2065006;28;20260;-74
2022/06/02 00:13:41;;;;;;;21.98;19.83;;;;;;;13.83;100.00;99006.94;2065343;28;20216;-75
2022/06/02 00:14:56;;;;;;;20.98;18.85;;;;;;;13.84;100.00;99006.59;2065982;28;20181;-74
2022/06/02 00:16:06;;;;;;;21.00;19.20;;;;;;;13.86;100.00;99001.69;2065769;28;20183;-74
2022/06/02 00:17:19;;;;;;;21.00;18.80;;;;;;;13.82;100.00;99002.69;2066076;28;20184;-74
2022/06/02 00:18:29;;;;;;;22.05;19.95;;;;;;;13.85;100.00;99002.03;2065117;28;20243;-75
2022/06/02 00:19:37;;;;;;;21.98;19.83;;;;;;;13.86;100.00;99011.66;2065281;28;20674;-74
2022/06/02 00:20:51;;;;;;;21.45;19.50;;;;;;;13.86;100.00;99003.59;2065980;28;20186;-75
2022/06/02 00:21:58;;;;;;;22.00;19.75;;;;;;;13.85;100.00;98999.34;2064652;28;20227;-74
2022/06/02 00:23:13;;;;;;;21.60;19.63;;;;;;;13.85;100.00;98997.44;2065197;28;20173;-75
2022/06/02 00:24:18;;;;;;;22.63;20.23;;;;;;;13.87;100.00;99010.53;2065087;28;20671;-74
2022/06/02 00:25:26;;;;;;;21.02;19.23;;;;;;;13.86;100.00;99003.59;2065462;28;20185;-75
2022/06/02 00:26:43;;;;;;;22.25;20.25;;;;;;;13.88;100.00;99005.97;2067539;28;20693;-74
2022/06/02 00:27:51;;;;;;;21.35;19.45;;;;;;;13.89;100.00;99002.94;2066851;28;20200;-74
2022/06/02 00:29:02;;;;;;;21.77;18.80;;;;;;;13.92;100.00;99005.00;2066549;28;20259;-74
2022/06/02 00:30:13;;;;;;;20.35;18.55;;;;;;;13.96;100.00;99003.25;2066741;28;20630;-75
2022/06/02 00:31:22;;;;;;;20.83;18.98;;;;;;;13.99;100.00;99004.53;2067346;28;20177;-75
2022/06/02 00:32:34;;;;;;;21.98;19.15;;;;;;;14.00;100.00;99006.88;2066531;28;20196;-75
2022/06/02 00:33:39;;;;;;;21.17;19.20;;;;;;;14.01;100.00;99005.78;2066667;28;20197;-74
2022/06/02 00:34:45;;;;;;;21.50;19.38;;;;;;;14.03;100.00;99006.25;2067253;28;20196;-74
2022/06/02 00:35:52;;;;;;;19.45;17.75;;;;;;;14.05;100.00;99004.03;2067293;28;20204;-75
2022/06/02 00:37:20;;;;;;;20.00;18.27;;;;;;;14.06;100.00;99010.97;2067137;28;20217;-75
2022/06/02 00:38:27;;;;;;;20.08;18.25;;;;;;;14.10;100.00;99006.53;2067298;28;20173;-74
2022/06/02 00:39:31;;;;;;;20.05;18.27;;;;;;;14.14;100.00;99007.47;2066361;28;20236;-74
2022/06/02 00:40:33;;;;;;;20.50;18.80;;;;;;;14.15;100.00;99011.72;2066610;28;20197;-74
2022/06/02 00:41:41;;;;;;;19.98;18.30;;;;;;;14.16;100.00;99015.22;2066535;28;20668;-74
2022/06/02 00:42:53;;;;;;;20.33;18.60;;;;;;;14.18;100.00;99004.16;2059435;28;20727;-74
2022/06/02 00:44:07;;;;;;;21.55;19.30;;;;;;;14.19;100.00;99005.72;2066809;28;20181;-74
2022/06/02 00:45:11;;;;;;;21.10;19.27;;;;;;;14.21;100.00;99004.28;2066347;28;20207;-74
2022/06/02 00:46:19;;;;;;;20.83;19.05;;;;;;;14.24;100.00;99013.59;2066540;28;20192;-74
2022/06/02 00:47:30;;;;;;;20.42;18.73;;;;;;;14.24;100.00;99010.91;2067083;28;20169;-74
2022/06/02 00:48:44;;;;;;;21.00;19.20;;;;;;;14.23;100.00;99012.03;2066406;28;20216;-75
2022/06/02 00:49:55;;;;;;;20.30;18.50;;;;;;;14.21;100.00;99009.66;2066692;28;20193;-75
2022/06/02 00:51:03;;;;;;;20.73;18.73;;;;;;;14.21;100.00;99009.66;2066755;28;20651;-74
2022/06/02 00:52:21;;;;;;;20.15;18.38;;;;;;;14.18;100.00;99013.00;2066368;28;20197;-74
2022/06/02 00:53:35;;;;;;;20.00;18.30;;;;;;;14.24;100.00;99024.31;2066382;28;20189;-75
2022/06/02 00:57:30;;;;;;;19.98;18.17;;;;;;;14.40;100.00;99038.78;2067090;28;20536;-75
2022/06/02 00:58:41;;;;;;;20.92;18.88;;;;;;;14.42;100.00;99047.31;2067246;28;20205;-74
2022/06/02 00:59:49;;;;;;;26.00;19.73;;;;;;;14.43;100.00;99075.75;2066994;28;20231;-74
2022/06/02 01:00:53;;;;;;;22.33;20.00;;;;;;;14.44;100.00;99114.91;2067141;28;20186;-74
2022/06/02 01:01:56;;;;;;;24.20;19.63;;;;;;;14.42;100.00;99101.00;2067127;28;20189;-74
2022/06/02 01:03:09;;;;;;;23.60;19.20;;;;;;;14.49;100.00;99104.00;2067032;28;20667;-75
2022/06/02 01:04:18;;;;;;;22.58;19.30;;;;;;;14.45;100.00;99104.97;2066657;28;20285;-74
2022/06/02 01:05:32;;;;;;;20.70;18.67;;;;;;;14.41;100.00;99096.75;2066240;28;20205;-75
2022/06/02 01:06:54;;;;;;;19.98;18.17;;;;;;;14.35;100.00;99098.81;2066140;28;20224;-74
2022/06/02 01:08:01;;;;;;;21.02;18.23;;;;;;;14.41;100.00;99086.00;2066207;28;20259;-74
2022/06/02 01:09:17;;;;;;;19.95;18.15;;;;;;;14.42;100.00;99085.72;2066641;28;20184;-76
2022/06/02 01:10:42;;;;;;;19.13;17.42;;;;;;;14.39;100.00;99083.66;2067253;28;20614;-76
2022/06/02 01:11:51;;;;;;;20.00;18.40;;;;;;;14.50;100.00;99086.00;2060341;28;20292;-76
2022/06/02 01:13:09;;;;;;;19.70;17.80;;;;;;;14.54;100.00;99087.75;2067248;28;20181;-75
2022/06/02 01:14:21;;;;;;;19.10;17.48;;;;;;;14.59;100.00;99084.88;2066830;28;20209;-76
2022/06/02 01:15:31;;;;;;;19.42;17.58;;;;;;;14.69;100.00;99089.91;2067041;28;20196;-75
2022/06/02 01:16:37;;;;;;;18.98;17.40;;;;;;;14.73;100.00;99091.94;2066884;28;20536;-74
2022/06/02 01:17:51;;;;;;;18.45;17.00;;;;;;;14.82;100.00;99092.69;2066985;28;20178;-74
2022/06/02 01:19:01;;;;;;;19.23;17.45;;;;;;;14.90;100.00;99083.81;2066990;28;20637;-74
2022/06/02 01:20:14;;;;;;;18.95;17.33;;;;;;;14.90;100.00;99081.13;2066989;28;20185;-75
2022/06/02 01:21:32;;;;;;;18.90;17.33;;;;;;;14.97;100.00;99078.72;2066007;28;20693;-74
2022/06/02 01:23:22;;;;;;;19.35;17.85;;;;;;;15.01;100.00;99079.63;2060301;28;20222;-74
2022/06/02 01:24:44;;;;;;;18.75;17.27;;;;;;;15.10;100.00;99083.06;2066759;28;20651;-75
2022/06/02 01:26:10;;;;;;;18.65;17.25;;;;;;;15.17;100.00;99069.91;2066896;28;20252;-74
2022/06/02 01:27:21;;;;;;;18.98;17.15;;;;;;;15.21;100.00;99080.81;2049867;29;20281;-74
2022/06/02 01:28:45;;;;;;;18.88;17.13;;;;;;;15.29;100.00;99069.22;2065453;28;20635;-74
2022/06/02 01:30:07;;;;;;;18.70;17.30;;;;;;;15.28;100.00;99076.47;2066496;28;20209;-74
2022/06/02 01:31:15;;;;;;;18.67;17.27;;;;;;;15.30;100.00;99070.00;2066801;28;20173;-74
2022/06/02 01:32:20;;;;;;;18.67;17.13;;;;;;;15.36;100.00;99065.97;2066707;28;20295;-74
2022/06/02 01:33:29;;;;;;;18.55;17.13;;;;;;;15.34;100.00;99070.91;2066337;28;20196;-74
2022/06/02 01:34:44;;;;;;;18.77;17.17;;;;;;;15.37;100.00;99065.66;2066401;28;20177;-74
2022/06/02 01:35:52;;;;;;;19.60;17.50;;;;;;;15.39;100.00;99079.56;2066942;28;20180;-77
2022/06/02 01:37:01;;;;;;;20.02;18.08;;;;;;;15.35;100.00;99078.63;2066390;28;20292;-75
2022/06/02 01:38:10;;;;;;;19.15;17.38;;;;;;;15.33;100.00;99080.09;2066056;28;20200;-75
2022/06/02 01:39:24;;;;;;;18.00;16.50;;;;;;;15.36;100.00;99090.19;2066397;28;20178;-74
2022/06/02 01:40:32;;;;;;;18.67;17.05;;;;;;;15.32;100.00;99076.59;2066758;28;20184;-75
2022/06/02 01:41:39;;;;;;;19.02;17.13;;;;;;;15.30;100.00;99075.38;2066676;28;20541;-74
2022/06/02 01:42:53;;;;;;;18.25;16.85;;;;;;;15.30;100.00;99091.50;2066801;28;20170;-74
2022/06/02 01:44:01;;;;;;;17.92;16.63;;;;;;;15.24;100.00;99088.19;2066012;28;20197;-74
2022/06/02 01:45:09;;;;;;;18.10;16.65;;;;;;;15.25;100.00;99092.47;2066266;28;20173;-74
2022/06/02 01:46:23;;;;;;;18.23;16.85;;;;;;;15.27;100.00;99104.47;2065907;28;20594;-74
2022/06/02 01:47:32;;;;;;;17.77;16.38;;;;;;;15.24;100.00;99109.72;2066278;28;20176;-75
2022/06/02 01:48:40;;;;;;;19.08;17.27;;;;;;;15.25;100.00;99111.28;2066962;28;20634;-74
2022/06/02 01:49:53;;;;;;;18.55;16.85;;;;;;;15.23;100.00;99103.53;2065943;28;20257;-74
2022/06/02 01:51:00;;;;;;;17.77;16.13;;;;;;;15.18;100.00;99106.41;2065360;28;20625;-74
2022/06/02 01:52:27;;;;;;;18.63;17.02;;;;;;;15.20;100.00;99112.28;2065936;28;20240;-74
2022/06/02 01:53:40;;;;;;;18.73;17.10;;;;;;;15.17;100.00;99112.91;2066502;28;20181;-74
2022/06/02 01:54:49;;;;;;;19.35;17.52;;;;;;;15.19;100.00;99113.34;2066684;28;20595;-74
2022/06/02 01:56:11;;;;;;;18.20;16.70;;;;;;;15.23;100.00;99119.66;2066687;28;20587;-74
2022/06/02 01:57:26;;;;;;;19.00;17.33;;;;;;;15.21;100.00;99099.63;2065879;28;20644;-74
2022/06/02 01:58:36;;;;;;;17.85;16.45;;;;;;;15.18;100.00;99100.25;2066304;28;20176;-74
2022/06/02 01:59:50;;;;;;;18.15;16.73;;;;;;;15.17;100.00;99094.09;2065921;28;20728;-74
2022/06/02 02:01:00;;;;;;;18.55;16.95;;;;;;;15.16;100.00;99092.50;2059424;28;20192;-74
2022/06/02 02:02:08;;;;;;;18.85;17.33;;;;;;;15.16;100.00;99097.88;2066182;28;20169;-74
2022/06/02 02:03:17;;;;;;;18.00;16.63;;;;;;;15.18;100.00;99092.97;2066496;28;20177;-74
2022/06/02 02:04:32;;;;;;;18.95;17.45;;;;;;;15.13;100.00;99106.63;2065725;28;20239;-75
2022/06/02 02:05:41;;;;;;;18.45;16.98;;;;;;;15.08;100.00;99101.41;2066135;28;20185;-74
2022/06/02 02:06:51;;;;;;;18.85;17.23;;;;;;;15.05;100.00;99112.81;2065424;28;20279;-74
2022/06/02 02:08:04;;;;;;;17.85;16.45;;;;;;;15.07;100.00;99115.19;2066075;28;20165;-74
2022/06/02 02:09:12;;;;;;;18.60;17.10;;;;;;;15.02;100.00;99112.66;2066682;28;20620;-74
2022/06/02 02:10:26;;;;;;;17.98;16.58;;;;;;;15.04;100.00;99108.56;2066508;28;20189;-74
2022/06/02 02:11:45;;;;;;;18.05;16.70;;;;;;;15.02;100.00;99097.31;2066804;28;20184;-74
2022/06/02 02:12:55;;;;;;;17.95;16.30;;;;;;;15.00;100.00;99091.50;2066539;28;20177;-74
2022/06/02 02:14:07;;;;;;;17.58;16.30;;;;;;;15.02;100.00;99085.78;2066455;28;20545;-74
2022/06/02 02:15:17;;;;;;;17.98;16.58;;;;;;;15.07;100.00;99088.31;2065715;28;20209;-74
2022/06/02 02:16:30;;;;;;;18.50;17.00;;;;;;;15.07;100.00;99089.09;2058857;28;20244;-75
2022/06/02 02:17:48;;;;;;;18.80;17.00;;;;;;;15.06;100.00;99087.53;2066097;28;20189;-75
2022/06/02 02:18:57;;;;;;;19.15;17.48;;;;;;;15.03;100.00;99082.81;2065626;28;20291;-75
2022/06/02 02:20:03;;;;;;;18.52;16.73;;;;;;;15.04;100.00;99079.00;2065734;28;20208;-75
2022/06/02 02:21:23;;;;;;;18.58;17.08;;;;;;;15.06;100.00;99082.16;2065444;28;20181;-75
2022/06/02 02:22:34;;;;;;;19.08;17.40;;;;;;;15.14;100.00;99085.91;2065693;28;20189;-75
2022/06/02 02:23:41;;;;;;;18.50;16.90;;;;;;;15.12;100.00;99080.06;2065902;28;20675;-76
2022/06/02 02:25:07;;;;;;;17.90;16.30;;;;;;;15.09;100.00;99078.78;2065784;28;20217;-76
2022/06/02 02:26:12;;;;;;;17.60;16.25;;;;;;;15.05;100.00;99080.56;2066398;28;20189;-75
2022/06/02 02:27:20;;;;;;;17.33;16.02;;;;;;;15.02;100.00;99080.41;2065580;28;20201;-75
2022/06/02 02:28:27;;;;;;;18.40;16.67;;;;;;;14.99;100.00;99084.53;2065809;28;20185;-75
2022/06/02 02:29:34;;;;;;;16.98;15.43;;;;;;;14.94;100.00;99082.84;2066452;28;20211;-75
2022/06/02 02:30:42;;;;;;;17.40;16.00;;;;;;;14.94;100.00;99092.78;2066402;28;20177;-75
2022/06/02 02:31:49;;;;;;;17.40;15.80;;;;;;;14.91;100.00;99090.75;2066111;28;20287;-75
2022/06/02 02:32:56;;;;;;;17.30;15.80;;;;;;;14.83;100.00;99099.63;2066404;28;20183;-75
2022/06/02 02:34:05;;;;;;;17.52;15.88;;;;;;;14.77;100.00;99101.72;2066382;28;20272;-75
2022/06/02 02:35:11;;;;;;;18.05;16.52;;;;;;;14.74;100.00;99107.72;2065658;28;20352;-75
2022/06/02 02:36:19;;;;;;;17.73;16.10;;;;;;;14.69;100.00;99106.03;2058197;28;20236;-75
2022/06/02 02:37:26;;;;;;;17.25;15.95;;;;;;;14.69;100.00;99116.75;2065746;28;20252;-75
2022/06/02 02:38:34;;;;;;;18.58;16.77;;;;;;;14.65;100.00;99117.72;2065593;28;20296;-75
2022/06/02 02:39:45;;;;;;;18.17;16.55;;;;;;;14.64;100.00;99111.56;2065958;28;20636;-75
2022/06/02 02:40:53;;;;;;;17.65;16.33;;;;;;;14.65;100.00;99105.06;2066431;28;20247;-75
2022/06/02 02:41:59;;;;;;;17.90;16.02;;;;;;;14.62;100.00;99116.47;2066490;28;20200;-75
2022/06/02 02:43:07;;;;;;;18.25;16.95;;;;;;;14.61;100.00;99108.75;2066343;28;20182;-75
2022/06/02 02:44:12;;;;;;;18.10;16.50;;;;;;;14.63;100.00;99117.25;2066276;28;20181;-76
2022/06/02 02:45:31;;;;;;;17.83;16.45;;;;;;;14.62;100.00;99121.84;2065460;28;20663;-75
2022/06/02 02:46:36;;;;;;;17.92;16.48;;;;;;;14.63;100.00;99128.78;2066042;28;20208;-75
2022/06/02 02:47:43;;;;;;;18.48;16.95;;;;;;;14.69;100.00;99127.50;2065687;28;20738;-75
2022/06/02 02:48:55;;;;;;;17.90;16.50;;;;;;;14.69;100.00;99127.50;2065476;28;20640;-75
2022/06/02 02:50:02;;;;;;;18.45;17.05;;;;;;;14.64;100.00;99124.19;2066178;28;20177;-75
2022/06/02 02:51:07;;;;;;;18.13;16.58;;;;;;;14.68;100.00;99119.75;2065754;28;20173;-75
2022/06/02 02:52:15;;;;;;;18.30;16.67;;;;;;;14.65;100.00;99131.94;2066129;28;20173;-75
2022/06/02 02:53:19;;;;;;;18.80;17.08;;;;;;;14.61;100.00;99131.00;2065518;28;20675;-75
2022/06/02 02:54:27;;;;;;;18.77;17.08;;;;;;;14.59;100.00;99135.09;2065671;28;20261;-75
2022/06/02 02:55:35;;;;;;;19.42;17.52;;;;;;;14.54;100.00;99138.75;2066382;28;20196;-75
2022/06/02 02:56:40;;;;;;;18.73;16.92;;;;;;;14.55;100.00;99148.38;2066258;28;20220;-76
2022/06/02 02:57:49;;;;;;;18.55;16.85;;;;;;;14.55;100.00;99151.06;2065422;28;20193;-75
2022/06/02 02:58:56;;;;;;;18.80;17.30;;;;;;;14.58;100.00;99150.41;2058531;28;20589;-75
2022/06/02 03:00:03;;;;;;;19.45;17.77;;;;;;;14.57;100.00;99154.22;2065456;28;20193;-75
2022/06/02 03:01:08;;;;;;;18.85;17.25;;;;;;;14.58;100.00;99152.31;2065795;28;20181;-75
2022/06/02 03:02:16;;;;;;;20.25;18.35;;;;;;;14.49;100.00;99149.66;2066160;28;20239;-75
2022/06/02 03:03:23;;;;;;;18.75;17.17;;;;;;;14.50;100.00;99155.81;2066190;28;20169;-75
2022/06/02 03:04:35;;;;;;;19.92;18.02;;;;;;;14.47;100.00;99157.25;2065354;28;20295;-76
2022/06/02 03:05:49;;;;;;;25.33;23.15;;;;;;;14.43;100.00;99162.44;2058845;28;20229;-77
2022/06/02 03:06:54;;;;;;;28.10;25.67;;;;;;;14.38;100.00;99161.81;2065339;28;20725;-78
2022/06/02 03:08:02;;;;;;;27.33;24.83;;;;;;;14.30;100.00;99158.03;2065597;28;20299;-78
2022/06/02 03:09:09;;;;;;;29.00;26.60;;;;;;;14.23;100.00;99151.56;2065847;28;20232;-79
2022/06/02 03:10:16;;;;;;;27.42;24.90;;;;;;;14.17;100.00;99150.97;2065917;28;20197;-79
2022/06/02 03:11:39;;;;;;;27.63;25.02;;;;;;;14.12;100.00;99148.41;2058410;28;20180;-80
2022/06/02 03:12:58;;;;;;;27.92;25.65;;;;;;;14.09;100.00;99146.38;2066469;28;20184;-80
2022/06/02 03:14:03;;;;;;;28.45;25.92;;;;;;;14.02;100.00;99148.75;2066309;28;20176;-80
2022/06/02 03:15:16;;;;;;;28.73;26.13;;;;;;;13.96;100.00;99150.78;2065779;28;20288;-80
2022/06/02 03:16:18;;;;;;;31.13;28.35;;;;;;;13.96;100.00;99153.47;2059019;28;20241;-80
2022/06/02 03:17:29;;;;;;;30.63;27.88;;;;;;;13.95;100.00;99156.47;2065577;28;20667;-81
2022/06/02 03:18:42;;;;;;;31.23;28.17;;;;;;;13.93;100.00;99156.00;2065911;28;20659;-80
2022/06/02 03:19:52;;;;;;;30.00;27.60;;;;;;;13.94;100.00;99155.69;2065635;28;20177;-80
2022/06/02 03:20:56;;;;;;;30.08;27.42;;;;;;;13.89;100.00;99144.31;2066144;28;20232;-80
2022/06/02 03:22:04;;;;;;;31.33;28.40;;;;;;;13.81;100.00;99140.53;2065410;28;20201;-80
2022/06/02 03:23:18;;;;;;;29.90;27.40;;;;;;;13.83;100.00;99136.44;2058693;28;20202;-81
2022/06/02 03:24:56;;;;;;;28.42;25.73;;;;;;;13.78;100.00;99135.78;2065464;28;20353;-80
2022/06/02 03:26:00;;;;;;;31.85;28.75;;;;;;;13.76;100.00;99133.44;2033530;29;20212;-80
2022/06/02 03:27:15;;;;;;;30.23;27.30;;;;;;;13.72;100.00;99124.44;2026278;29;20747;-80
2022/06/02 03:28:21;;;;;;;31.35;28.15;;;;;;;13.76;100.00;99132.66;2045094;28;20747;-80
2022/06/02 03:29:36;;;;;;;30.02;27.20;;;;;;;13.74;100.00;99126.81;2065491;28;20189;-81
2022/06/02 03:30:49;;;;;;;30.77;28.08;;;;;;;13.74;100.00;99129.50;2065364;28;20283;-81
2022/06/02 03:31:57;;;;;;;31.98;28.85;;;;;;;13.75;100.00;99133.75;2065485;28;20262;-80
2022/06/02 03:33:21;;;;;;;31.52;28.42;;;;;;;13.82;100.00;99147.50;2066024;28;20556;-80
2022/06/02 03:34:26;;;;;;;31.77;28.85;;;;;;;13.79;100.00;99143.53;2065549;28;20646;-80
2022/06/02 03:35:39;;;;;;;32.03;28.77;;;;;;;13.79;100.00;99137.38;2065471;28;20651;-80
2022/06/02 03:37:25;;;;;;;33.58;30.35;;;;;;;13.79;100.00;99137.38;2065568;28;20228;-80
2022/06/02 03:38:38;;;;;;;31.45;28.80;;;;;;;13.78;100.00;99141.94;2065899;28;20280;-80
2022/06/02 03:39:51;;;;;;;31.98;29.00;;;;;;;13.78;100.00;99143.84;2065588;28;20256;-80
2022/06/02 03:41:08;;;;;;;31.17;28.08;;;;;;;13.79;100.00;99143.53;2065537;28;20313;-80
2022/06/02 03:42:16;;;;;;;31.77;28.42;;;;;;;13.81;100.00;99156.63;2066284;28;20183;-80
2022/06/02 03:43:26;;;;;;;30.73;27.75;;;;;;;13.79;100.00;99153.47;2066009;28;20169;-79
2022/06/02 03:44:36;;;;;;;31.00;27.80;;;;;;;13.81;100.00;99154.75;2066113;28;20205;-80
2022/06/02 03:45:54;;;;;;;31.13;27.88;;;;;;;13.79;100.00;99148.88;2065406;28;20236;-79
2022/06/02 03:47:09;;;;;;;30.50;27.45;;;;;;;13.81;100.00;99152.06;2065815;28;20169;-80
2022/06/02 03:48:26;;;;;;;30.25;27.55;;;;;;;13.81;100.00;99159.28;2065572;28;20200;-80
2022/06/02 03:49:39;;;;;;;30.20;27.10;;;;;;;13.78;100.00;99157.25;2059466;28;20193;-80
2022/06/02 03:50:53;;;;;;;30.15;27.25;;;;;;;13.79;100.00;99170.34;2065235;28;20208;-79
2022/06/02 03:52:06;;;;;;;29.75;26.58;;;;;;;13.76;100.00;99176.34;2058862;28;20762;-80
2022/06/02 03:53:21;;;;;;;29.45;26.70;;;;;;;13.75;100.00;99182.03;2065478;28;20264;-79
2022/06/02 03:54:44;;;;;;;29.73;26.65;;;;;;;13.78;100.00;99181.38;2065264;28;20197;-79
2022/06/02 03:55:55;;;;;;;31.23;28.33;;;;;;;13.83;100.00;99176.66;2060091;28;20205;-79
2022/06/02 03:57:09;;;;;;;30.13;27.25;;;;;;;13.78;100.00;99173.34;2065594;28;20188;-79
2022/06/02 03:58:21;;;;;;;28.52;25.67;;;;;;;13.73;100.00;99160.88;2066031;28;20169;-80
2022/06/02 03:59:43;;;;;;;28.83;25.95;;;;;;;13.77;100.00;99166.41;2066175;28;20613;-80
2022/06/02 04:00:49;;;;;;;29.08;26.35;;;;;;;13.78;100.00;99154.56;2067287;28;20187;-80
2022/06/02 04:01:54;;;;;;;30.08;27.08;;;;;;;13.81;100.00;99161.97;2067523;28;20208;-79
2022/06/02 04:02:57;;;;;;;28.92;25.98;;;;;;;13.81;100.00;99156.63;2067692;28;20212;-79
2022/06/02 04:04:08;;;;;;;30.52;27.60;;;;;;;13.84;100.00;99158.69;2067456;28;20197;-79
2022/06/02 04:05:21;;;;;;;29.33;26.48;;;;;;;13.88;100.00;99167.66;2066670;28;20236;-79
2022/06/02 04:06:34;;;;;;;30.50;27.67;;;;;;;13.86;100.00;99161.84;2066716;28;20221;-80
2022/06/02 04:07:38;;;;;;;30.10;27.17;;;;;;;13.85;100.00;99158.38;2067840;28;20599;-84
2022/06/02 04:08:53;;;;;;;29.60;27.00;;;;;;;13.89;100.00;99161.19;2067410;28;20193;-77
2022/06/02 04:10:00;;;;;;;29.58;26.98;;;;;;;13.88;100.00;99159.63;2066752;28;20196;-77
2022/06/02 04:11:14;;;;;;;30.05;27.30;;;;;;;13.89;100.00;99163.09;2067257;28;20170;-77
2022/06/02 04:13:53;;;;;;;29.20;26.50;;;;;;;13.89;100.00;99166.56;2067058;28;20299;-77
2022/06/02 04:15:08;;;;;;;28.63;26.05;;;;;;;14.01;100.00;99166.75;2067399;28;20170;-77
2022/06/02 04:16:26;;;;;;;30.05;27.15;;;;;;;13.97;100.00;99173.81;2067592;28;20212;-77
2022/06/02 04:17:32;;;;;;;28.83;26.23;;;;;;;13.95;100.00;99178.72;2067431;28;20185;-76
2022/06/02 04:18:43;;;;;;;30.08;27.23;;;;;;;13.94;100.00;99165.63;2067345;28;20236;-77
2022/06/02 04:21:30;;;;;;;27.92;25.52;;;;;;;13.95;100.00;99178.72;2066687;28;20239;-77
2022/06/02 04:22:41;;;;;;;28.17;25.65;;;;;;;13.95;100.00;99175.25;2066647;28;20217;-77
2022/06/02 04:23:56;;;;;;;28.63;26.13;;;;;;;13.95;100.00;99183.28;2066636;28;20200;-77
2022/06/02 04:25:12;;;;;;;29.58;26.88;;;;;;;13.87;100.00;99190.22;2061072;28;20730;-77
2022/06/02 04:26:23;;;;;;;29.25;26.48;;;;;;;13.95;100.00;99194.81;2067032;28;20177;-77
2022/06/02 04:27:31;;;;;;;28.55;26.05;;;;;;;13.97;100.00;99184.56;2067310;28;20235;-77
2022/06/02 04:28:40;;;;;;;28.45;26.05;;;;;;;13.97;100.00;99184.56;2066511;28;20213;-77
2022/06/02 04:30:05;;;;;;;28.48;25.88;;;;;;;13.97;100.00;99181.09;2066778;28;20173;-77
2022/06/02 04:31:16;;;;;;;29.30;26.58;;;;;;;14.00;100.00;99181.25;2066008;28;20223;-77
2022/06/02 04:32:26;;;;;;;29.70;26.90;;;;;;;14.04;100.00;99184.09;2067088;28;20221;-77
2022/06/02 04:33:30;;;;;;;30.00;27.08;;;;;;;14.05;100.00;99183.78;2066540;28;20287;-77
2022/06/02 04:34:36;;;;;;;30.08;27.33;;;;;;;14.08;100.00;99188.53;2066755;28;20204;-77
2022/06/02 04:35:43;;;;;;;30.90;28.25;;;;;;;14.09;100.00;99184.72;2066511;28;20197;-77
2022/06/02 04:36:52;;;;;;;30.33;27.50;;;;;;;14.11;100.00;99187.09;2066375;28;20224;-77
2022/06/02 04:38:01;;;;;;;30.42;27.60;;;;;;;14.14;100.00;99187.25;2067204;28;20671;-77
2022/06/02 04:39:10;;;;;;;29.95;27.27;;;;;;;14.17;100.00;99185.84;2067169;28;20177;-77
2022/06/02 04:40:20;;;;;;;29.73;27.02;;;;;;;14.21;100.00;99186.78;2066548;28;20193;-77
2022/06/02 04:41:26;;;;;;;27.77;24.98;;;;;;;14.23;100.00;99181.88;2066648;28;20228;-77
2022/06/02 04:42:32;;;;;;;28.45;25.92;;;;;;;14.22;100.00;99195.59;2067467;28;20178;-77
2022/06/02 04:43:40;;;;;;;30.02;26.77;;;;;;;14.25;100.00;99193.09;2067223;28;20654;-77
2022/06/02 04:44:47;;;;;;;28.90;26.25;;;;;;;14.27;100.00;99196.25;2067288;28;20695;-77
2022/06/02 04:45:57;;;;;;;30.95;28.17;;;;;;;14.29;100.00;99201.28;2067119;28;20185;-77
2022/06/02 04:47:07;;;;;;;29.10;26.27;;;;;;;14.32;100.00;99192.59;2067211;28;20201;-77
2022/06/02 04:48:14;;;;;;;29.10;26.52;;;;;;;14.30;100.00;99200.97;2067227;28;20178;-77
2022/06/02 04:49:19;;;;;;;29.33;26.65;;;;;;;14.33;100.00;99194.19;2067102;28;20174;-77
2022/06/02 04:50:26;;;;;;;28.88;26.02;;;;;;;14.29;100.00;99199.41;2067117;28;20184;-77
2022/06/02 04:51:34;;;;;;;28.13;25.65;;;;;;;14.37;100.00;99195.91;2065952;28;20232;-77
2022/06/02 04:52:47;;;;;;;29.67;26.80;;;;;;;14.38;100.00;99199.38;2059533;28;20225;-77
2022/06/02 04:53:53;;;;;;;29.92;27.25;;;;;;;14.41;100.00;99194.16;2066801;28;20186;-77
2022/06/02 04:55:01;;;;;;;29.30;26.60;;;;;;;14.41;100.00;99193.38;2066531;28;20292;-77
2022/06/02 04:56:09;;;;;;;30.77;28.23;;;;;;;14.53;100.00;99185.50;2066664;28;20181;-77
2022/06/02 04:57:22;;;;;;;31.15;28.35;;;;;;;14.62;100.00;99196.25;2067146;28;20276;-77
2022/06/02 04:58:28;;;;;;;30.60;27.70;;;;;;;14.62;100.00;99185.50;2067105;28;20504;-78
2022/06/02 04:59:35;;;;;;;30.55;27.65;;;;;;;14.53;100.00;99188.19;2066377;28;20205;-77
2022/06/02 05:00:44;;;;;;;30.20;27.33;;;;;;;14.59;100.00;99176.16;2066570;28;20260;-77
2022/06/02 05:01:57;;;;;;;29.38;26.98;;;;;;;14.70;100.00;99182.00;2067199;28;20176;-77
2022/06/02 05:03:02;;;;;;;29.60;26.67;;;;;;;14.60;100.00;99182.34;2066328;28;20196;-77
2022/06/02 05:04:11;;;;;;;29.50;26.80;;;;;;;14.60;100.00;99182.34;2066590;28;20663;-77
2022/06/02 05:05:15;;;;;;;29.20;26.88;;;;;;;14.61;100.00;99192.75;2066272;28;20703;-77
2022/06/02 05:06:23;;;;;;;29.55;27.02;;;;;;;14.63;100.00;99187.84;2065873;28;20228;-77
2022/06/02 05:07:34;;;;;;;29.23;26.38;;;;;;;14.69;100.00;99193.84;2066238;28;20196;-77
2022/06/02 05:08:55;;;;;;;30.02;27.42;;;;;;;14.74;100.00;99196.34;2059538;28;20252;-78
2022/06/02 05:10:06;;;;;;;29.98;27.23;;;;;;;14.80;100.00;99191.63;2059877;28;20567;-77
2022/06/02 05:11:16;;;;;;;29.80;27.05;;;;;;;14.85;100.00;99200.28;2065912;28;20200;-77
2022/06/02 05:12:28;;;;;;;29.58;26.77;;;;;;;14.85;100.00;99197.59;2066276;28;20392;-77
2022/06/02 05:13:37;;;;;;;31.05;28.30;;;;;;;14.89;100.00;99203.13;2066583;28;20750;-77
2022/06/02 05:14:43;;;;;;;31.48;28.77;;;;;;;14.94;100.00;99201.06;2066897;28;20185;-77
2022/06/02 05:16:01;;;;;;;30.02;27.38;;;;;;;14.96;100.00;99204.22;2067075;28;20256;-77
2022/06/02 05:17:11;;;;;;;29.98;27.30;;;;;;;15.06;100.00;99200.38;2066111;28;20201;-77
2022/06/02 05:18:32;;;;;;;30.17;27.33;;;;;;;15.07;100.00;99211.91;2066690;28;20177;-77
2022/06/02 05:20:01;;;;;;;32.30;29.10;;;;;;;15.14;100.00;99215.69;2065715;28;20263;-77
2022/06/02 05:21:13;;;;;;;30.30;27.75;;;;;;;15.12;100.00;99212.53;2066110;28;20169;-77
2022/06/02 05:22:37;;;;;;;31.27;27.83;;;;;;;15.12;100.00;99215.22;2066848;28;20224;-77
2022/06/02 05:23:55;;;;;;;30.15;27.30;;;;;;;15.16;100.00;99216.16;2066528;28;20296;-77
2022/06/02 05:25:30;;;;;;;33.45;29.42;;;;;;;15.26;100.00;99220.38;2066218;28;20794;-77
2022/06/02 05:27:00;;;;;;;31.05;28.17;;;;;;;15.33;100.00;99222.56;2066640;28;20552;-77
2022/06/02 05:28:23;;;;;;;31.73;28.85;;;;;;;15.34;100.00;99211.47;2066153;28;20604;-78
2022/06/02 05:29:36;;;;;;;31.25;28.30;;;;;;;15.26;100.00;99206.94;2067146;28;20197;-77
2022/06/02 05:31:17;;;;;;;32.30;29.17;;;;;;;15.28;100.00;99202.81;2066166;28;20272;-77